Andover, MN

10:03 AM CDT on September 01, 2014 (GMT -0500)
Lake John | Change Station
CLOSE
Current Station
Personal Weather Station
Location: Annandale, MN
Elevation: 1066 ft
Nearby Weather Stations

Elev 1066 ft 45.26 °N, 94.16 °W | Updated 3 minutes ago

Partly Cloudy
Partly Cloudy
67.5 °F
Feels Like 67.5 °F
N
10.9
Wind Variable Wind from WNW

Today
High -- | Low -- °F
--% Chance of Precip.
Yesterday
High -- | Low -- °F
Precip. -- in
6:38 AM 7:53 PM
Waxing Crescent, 41% visible
Pressure 29.70 in
Visibility 10.0 miles
Clouds Scattered Clouds 12000 ft
Dew Point 61 °F
Humidity 80%
Rainfall 0.34 in
Snow Depth Not available.
UV 3 out of 12
Pollen 6.30 out of 12
Ozone Good
PM2.5 Good
Flu Activity Not available.
METAR KMGG 011455Z AUTO 28006KT 10SM SCT120 20/18 A2970 RMK AO2 P0001 60001 T01980175

More Conditions Fewer Conditions

Pressure 29.70 in
Visibility 10.0 miles
Clouds Scattered Clouds 12000 ft
Dew Point 61 °F
Humidity 80%
Rainfall 0.34 in
Snow Depth Not available.
UV 3 out of 12
Pollen 6.30 out of 12
Ozone Good
PM2.5 Good
Flu Activity Not available.
METAR KMGG 011455Z AUTO 28006KT 10SM SCT120 20/18 A2970 RMK AO2 P0001 60001 T01980175

More Conditions Fewer Conditions

10-Day Weather Forecast

Almanac

Astronomy

Sep. 01, 2014 Rise Set
Actual Time 6:38 AM CDT 7:53 PM CDT
Civil Twilight 6:07 AM CDT 8:24 PM CDT
Nautical Twilight 5:31 AM CDT 9:00 PM CDT
Astronomical Twilight 4:52 AM CDT 9:39 PM CDT
Moon 1:43 PM CDT 11:36 PM CDT
Length of Visible Light 14h 16m
Length of Day
13h 15m
Tomorrow will be 3m 4s shorter.
Waxing Crescent, 41% of the Moon is Illuminated
Today
Waxing Crescent
Sep 2
First Quarter
Sep 8
Full
Sep 15
Last Quarter
Sep 24
New

Today's Extremes

State Highs State Lows

Community

WunderPhotos

Upload Photos

1,749,256 photos uploaded!

Nearby

Air Quality

  Air Quality AQ Index Pollutant
Yesterday Good
OZONE
Yesterday Good
PM2.5
Current Good
OZONE
Current Good
PM2.5
Monday Good
OZONE
Monday Good
PM2.5
Tuesday Good
OZONE
Tuesday Good
PM2.5
Wednesday Good
OZONE
Wednesday Good
PM2.5
Thursday Good
PM2.5
Thursday Good
OZONE
Friday Good
OZONE
Friday Good
PM2.5

Snow Depth

Station Depth Elevation
No new snow has been reported.

Earthquake Activity

City Distance Mag. Time & Date
No recent earthquake activity has been reported nearby.
Minimum magnitude displayed is 2.5.

Coastal Water Temperatures

Place Temperature
No Stations Reporting

Nearby Weather Stations